Time;durP1;ratioP1;P1;durP2;ratioP2;P2;SDS_P1;SDS_P2;PMS_P1;PMS_P2;Temp;Humidity;BMP_temperature;BMP_pressure;BME280_temperature;BME280_humidity;BME280_pressure;Samples;Min_cycle;Max_cycle;Signal;HPM_P1;HPM_P2
2022/10/26 00:02:02;;;;;;;6.72;2.92;;;12.60;28.60;;;;;;7349063;19;20395;-67
2022/10/26 00:04:32;;;;;;;5.80;3.10;;;12.60;28.20;;;;;;7354787;19;20393;-67
2022/10/26 00:07:04;;;;;;;10.13;3.25;;;12.60;29.60;;;;;;7354181;19;20010;-68
2022/10/26 00:09:34;;;;;;;5.85;2.92;;;12.60;29.90;;;;;;7350721;19;20375;-68
2022/10/26 00:12:04;;;;;;;6.07;3.25;;;12.70;29.30;;;;;;7351944;19;20502;-68
2022/10/26 00:14:34;;;;;;;6.22;2.92;;;12.60;28.70;;;;;;7376417;19;20466;-68
2022/10/26 00:17:03;;;;;;;13.20;3.33;;;12.60;29.30;;;;;;7352506;19;20865;-68
2022/10/26 00:19:36;;;;;;;4.88;3.67;;;12.60;30.00;;;;;;7350668;19;20011;-68
2022/10/26 00:22:09;;;;;;;10.90;3.50;;;12.60;30.00;;;;;;7352166;19;20022;-68
2022/10/26 00:24:39;;;;;;;7.63;3.10;;;12.60;30.00;;;;;;7354352;19;20018;-68
2022/10/26 00:27:08;;;;;;;10.27;3.40;;;12.60;30.80;;;;;;7353542;19;20023;-68
2022/10/26 00:29:38;;;;;;;11.43;4.00;;;12.60;31.20;;;;;;7371260;19;20122;-69
2022/10/26 00:32:08;;;;;;;9.05;3.83;;;12.70;31.60;;;;;;7350392;19;20050;-67
2022/10/26 00:34:38;;;;;;;6.43;3.20;;;12.70;31.80;;;;;;7354189;19;20010;-67
2022/10/26 00:37:11;;;;;;;8.93;4.28;;;12.70;30.80;;;;;;7352281;19;20050;-68
2022/10/26 00:39:40;;;;;;;7.82;3.67;;;12.70;30.90;;;;;;7349621;19;20014;-68
2022/10/26 00:42:14;;;;;;;7.25;3.75;;;12.70;30.80;;;;;;7351490;19;20674;-67
2022/10/26 00:45:00;;;;;;;9.15;4.53;;;12.80;30.50;;;;;;7376431;19;20021;-68
2022/10/26 00:47:37;;;;;;;8.98;4.53;;;12.80;30.80;;;;;;7350494;19;20027;-68
2022/10/26 00:50:12;;;;;;;11.52;4.45;;;12.70;31.00;;;;;;7351377;19;20067;-68
2022/10/26 00:52:44;;;;;;;14.40;5.15;;;12.70;32.00;;;;;;7350844;19;20014;-68
2022/10/26 00:55:14;;;;;;;10.30;4.80;;;12.80;32.70;;;;;;7354324;19;20027;-68
2022/10/26 00:57:44;;;;;;;11.63;5.88;;;12.80;31.80;;;;;;7350577;19;20013;-68
2022/10/26 01:00:14;;;;;;;10.32;5.80;;;12.80;31.80;;;;;;7349765;19;20010;-68
2022/10/26 01:02:47;;;;;;;10.30;5.95;;;12.80;31.70;;;;;;7378997;19;20035;-69
2022/10/26 01:05:19;;;;;;;12.07;5.55;;;12.80;32.00;;;;;;7361482;19;20010;-69
2022/10/26 01:07:53;;;;;;;11.25;5.43;;;12.80;32.60;;;;;;7355004;19;20086;-69
2022/10/26 01:10:24;;;;;;;8.18;5.30;;;12.80;31.90;;;;;;7358919;19;20006;-67
2022/10/26 01:12:54;;;;;;;10.43;5.22;;;12.80;32.70;;;;;;7358813;19;20386;-68
2022/10/26 01:15:30;;;;;;;12.07;5.10;;;12.80;33.40;;;;;;7359838;19;20011;-68
2022/10/26 01:18:08;;;;;;;10.65;4.45;;;12.70;33.30;;;;;;7356180;19;20017;-69
2022/10/26 01:21:02;;;;;;;7.68;4.38;;;12.70;34.10;;;;;;7381537;19;20011;-69
2022/10/26 01:23:47;;;;;;;9.00;5.75;;;12.80;35.20;;;;;;7358442;19;20071;-68
2022/10/26 01:26:39;;;;;;;12.48;5.68;;;12.80;38.30;;;;;;7359679;19;20041;-68
2022/10/26 01:29:45;;;;;;;10.05;5.22;;;12.70;39.60;;;;;;7355356;19;20014;-67
2022/10/26 01:32:24;;;;;;;11.88;5.53;;;12.70;40.60;;;;;;7356951;19;20017;-67
2022/10/26 01:35:01;;;;;;;10.88;5.32;;;12.60;41.50;;;;;;7360182;19;20034;-67
2022/10/26 01:37:37;;;;;;;8.23;5.50;;;12.60;41.50;;;;;;7356430;19;20009;-68
2022/10/26 01:40:12;;;;;;;18.27;5.60;;;12.60;42.10;;;;;;7357897;19;20673;-68
2022/10/26 01:42:46;;;;;;;7.90;4.90;;;12.60;42.90;;;;;;7358114;19;20081;-68
2022/10/26 01:45:17;;;;;;;10.23;5.38;;;12.60;43.40;;;;;;7358938;19;20565;-68
2022/10/26 01:47:50;;;;;;;7.90;5.07;;;12.60;43.30;;;;;;7369689;19;20010;-69
2022/10/26 01:50:22;;;;;;;9.30;4.82;;;12.60;41.80;;;;;;7377871;19;20014;-68
2022/10/26 01:52:52;;;;;;;9.52;5.18;;;12.70;41.30;;;;;;7355127;19;20015;-69
2022/10/26 01:55:42;;;;;;;13.55;5.80;;;12.70;42.40;;;;;;7358051;19;20470;-69
2022/10/26 01:58:25;;;;;;;11.73;5.35;;;12.70;40.40;;;;;;7355445;19;20460;-69
2022/10/26 02:01:06;;;;;;;10.52;5.68;;;12.70;39.50;;;;;;7357475;19;20471;-69
2022/10/26 02:03:44;;;;;;;10.38;5.00;;;12.70;39.00;;;;;;7358318;19;20092;-68
2022/10/26 02:06:21;;;;;;;9.32;5.15;;;12.70;37.90;;;;;;7359016;19;20018;-68
2022/10/26 02:09:08;;;;;;;12.32;5.03;;;12.60;37.70;;;;;;7353449;19;20050;-68
2022/10/26 02:11:41;;;;;;;8.60;5.25;;;12.70;37.40;;;;;;7378828;19;20014;-68
2022/10/26 02:14:19;;;;;;;14.73;5.80;;;12.70;37.00;;;;;;7357622;19;20006;-68
2022/10/26 02:16:57;;;;;;;11.40;5.15;;;12.70;35.70;;;;;;7356926;19;20466;-68
2022/10/26 02:19:35;;;;;;;10.25;6.18;;;12.70;36.70;;;;;;7354034;19;20896;-68
2022/10/26 02:22:14;;;;;;;10.43;5.40;;;12.60;37.10;;;;;;7355062;19;20006;-68
2022/10/26 02:24:45;;;;;;;9.70;5.55;;;12.60;36.60;;;;;;7359785;19;20033;-68
2022/10/26 02:27:20;;;;;;;10.07;5.45;;;12.60;37.20;;;;;;7357744;19;20017;-67
2022/10/26 02:29:52;;;;;;;10.20;5.20;;;12.60;38.50;;;;;;7353645;19;20018;-68
2022/10/26 02:32:25;;;;;;;14.30;5.53;;;12.50;39.50;;;;;;7376962;19;20011;-68
2022/10/26 02:35:01;;;;;;;10.75;5.47;;;12.50;41.10;;;;;;7358069;19;20006;-68
2022/10/26 02:37:33;;;;;;;11.43;5.30;;;12.50;41.10;;;;;;7354314;19;20509;-68
2022/10/26 02:40:07;;;;;;;9.98;4.88;;;12.40;42.30;;;;;;7356161;19;20030;-67
2022/10/26 02:42:38;;;;;;;11.13;5.30;;;12.40;43.30;;;;;;7354757;19;20026;-67
2022/10/26 02:45:13;;;;;;;8.15;5.45;;;12.50;43.40;;;;;;7357529;19;20479;-68
2022/10/26 02:47:43;;;;;;;11.85;5.90;;;12.50;42.30;;;;;;7375392;19;20010;-68
2022/10/26 02:50:17;;;;;;;11.65;5.78;;;12.40;42.20;;;;;;7353391;19;20003;-68
2022/10/26 02:52:51;;;;;;;12.68;6.75;;;12.30;43.30;;;;;;7356942;19;20081;-68
2022/10/26 02:55:23;;;;;;;;;;;12.40;43.40;;;;;;7362631;19;20756;-68
2022/10/26 02:57:57;;;;;;;11.57;6.07;;;12.40;43.40;;;;;;7360527;19;19927;-68
2022/10/26 03:00:27;;;;;;;12.30;6.22;;;12.30;45.30;;;;;;7360780;19;20015;-68
2022/10/26 03:03:01;;;;;;;9.90;5.28;;;12.40;45.00;;;;;;7361416;19;20026;-68
2022/10/26 03:05:35;;;;;;;16.50;5.72;;;12.40;44.30;;;;;;7382448;19;20017;-68
2022/10/26 03:08:06;;;;;;;10.18;5.93;;;12.40;43.40;;;;;;7358763;19;20431;-68
2022/10/26 03:10:38;;;;;;;12.80;5.80;;;12.50;43.50;;;;;;7359519;19;20010;-66
2022/10/26 03:13:08;;;;;;;10.23;5.85;;;12.50;43.40;;;;;;7361310;19;20043;-68
2022/10/26 03:15:38;;;;;;;8.25;5.60;;;12.50;42.50;;;;;;7360417;19;20014;-67
2022/10/26 03:18:10;;;;;;;9.75;5.40;;;12.50;42.90;;;;;;7359260;19;20007;-67
2022/10/26 03:20:45;;;;;;;14.10;6.53;;;12.40;41.40;;;;;;7380423;19;20439;-67
2022/10/26 03:23:15;;;;;;;14.32;5.68;;;12.40;41.40;;;;;;7360659;19;20010;-67
2022/10/26 03:25:45;;;;;;;9.68;5.40;;;12.30;41.70;;;;;;7357362;19;20419;-67
2022/10/26 03:28:15;;;;;;;12.95;5.57;;;12.40;41.30;;;;;;7359464;19;20059;-68
2022/10/26 03:30:44;;;;;;;15.30;5.38;;;12.50;40.80;;;;;;7359847;19;20018;-68
2022/10/26 03:33:14;;;;;;;9.38;6.30;;;12.50;41.40;;;;;;7360788;19;20017;-68
2022/10/26 03:35:47;;;;;;;9.77;5.30;;;12.40;40.80;;;;;;7382022;19;20019;-68
2022/10/26 03:38:17;;;;;;;11.85;5.47;;;12.50;40.00;;;;;;7357569;19;20022;-66
2022/10/26 03:40:47;;;;;;;16.83;6.45;;;12.60;40.20;;;;;;7358402;19;20505;-67
2022/10/26 03:43:17;;;;;;;9.93;6.13;;;12.60;41.00;;;;;;7360613;19;20015;-68
2022/10/26 03:45:46;;;;;;;11.80;5.82;;;12.50;41.60;;;;;;7359689;19;20378;-68
2022/10/26 03:48:16;;;;;;;12.20;6.15;;;12.60;43.10;;;;;;7360017;19;20011;-66
2022/10/26 03:50:49;;;;;;;11.27;6.20;;;12.60;43.50;;;;;;7380250;19;20015;-67
2022/10/26 03:53:18;;;;;;;10.43;6.10;;;12.50;43.90;;;;;;7360120;19;20467;-67
2022/10/26 03:55:48;;;;;;;15.73;6.50;;;12.60;43.50;;;;;;7359407;19;20671;-67
2022/10/26 03:58:18;;;;;;;9.43;5.57;;;12.60;42.50;;;;;;7359058;19;20274;-67
2022/10/26 04:00:49;;;;;;;14.75;6.03;;;12.70;41.70;;;;;;7359103;19;20070;-67
2022/10/26 04:03:18;;;;;;;8.88;5.57;;;12.70;40.80;;;;;;7360165;19;20022;-67
2022/10/26 04:05:51;;;;;;;14.77;5.80;;;12.70;39.40;;;;;;7359463;19;20014;-68
2022/10/26 04:08:21;;;;;;;7.22;5.22;;;12.70;40.00;;;;;;7380327;19;20021;-68
2022/10/26 04:10:50;;;;;;;7.63;5.28;;;12.70;39.50;;;;;;7357755;19;20021;-68
2022/10/26 04:13:20;;;;;;;10.50;5.45;;;12.70;39.50;;;;;;7359852;19;20010;-67
2022/10/26 04:15:50;;;;;;;8.65;4.70;;;12.70;39.00;;;;;;7359883;19;20010;-69
2022/10/26 04:18:20;;;;;;;12.02;5.25;;;12.70;37.40;;;;;;7358603;19;20046;-68
2022/10/26 04:20:52;;;;;;;9.55;5.28;;;12.80;37.70;;;;;;7357855;19;20010;-68
2022/10/26 04:23:22;;;;;;;13.35;5.30;;;12.70;37.10;;;;;;7380971;19;20375;-68
2022/10/26 04:26:12;;;;;;;9.95;5.47;;;12.70;36.20;;;;;;7358672;19;20553;-67
2022/10/26 04:28:42;;;;;;;10.25;5.28;;;12.70;36.00;;;;;;7357245;19;20010;-67
2022/10/26 04:31:11;;;;;;;11.02;5.32;;;12.70;36.70;;;;;;7357308;19;20010;-68
2022/10/26 04:33:41;;;;;;;9.32;4.78;;;12.70;37.20;;;;;;7358356;19;20011;-68
2022/10/26 04:36:14;;;;;;;8.38;4.90;;;12.60;36.90;;;;;;7357339;19;20856;-67
2022/10/26 04:38:43;;;;;;;8.05;4.82;;;12.70;36.60;;;;;;7377901;19;20018;-66
2022/10/26 04:41:13;;;;;;;15.88;6.07;;;12.70;36.80;;;;;;7355916;19;20468;-67
2022/10/26 04:43:43;;;;;;;12.35;5.50;;;12.70;37.40;;;;;;7358537;19;20010;-68
2022/10/26 04:46:13;;;;;;;7.55;4.60;;;12.70;37.70;;;;;;7358877;19;20038;-68
2022/10/26 04:48:45;;;;;;;10.23;5.43;;;12.60;39.30;;;;;;7357160;19;20383;-68
2022/10/26 04:51:18;;;;;;;16.65;5.50;;;12.50;41.30;;;;;;7356955;19;20015;-68
2022/10/26 04:53:48;;;;;;;10.18;5.45;;;12.50;43.10;;;;;;7362482;19;20015;-69
2022/10/26 04:56:17;;;;;;;9.68;4.78;;;12.60;43.50;;;;;;7378863;19;20014;-68
2022/10/26 04:58:47;;;;;;;7.25;4.47;;;12.60;43.00;;;;;;7355052;19;20017;-68
2022/10/26 05:01:17;;;;;;;13.45;4.25;;;12.70;40.30;;;;;;7356385;19;20010;-67
2022/10/26 05:03:51;;;;;;;9.02;4.05;;;12.80;38.50;;;;;;7357844;19;21090;-68
2022/10/26 05:06:24;;;;;;;6.38;4.10;;;12.80;38.00;;;;;;7357774;19;20010;-67
2022/10/26 05:08:54;;;;;;;7.45;4.70;;;12.80;38.30;;;;;;7357313;19;20253;-67
2022/10/26 05:11:23;;;;;;;10.63;4.30;;;12.80;38.80;;;;;;7377798;19;20478;-68
2022/10/26 05:13:53;;;;;;;7.00;4.40;;;12.80;38.30;;;;;;7357125;19;20015;-67
2022/10/26 05:16:23;;;;;;;11.82;4.50;;;12.80;37.90;;;;;;7357276;19;20011;-68
2022/10/26 05:18:53;;;;;;;12.00;4.72;;;12.80;38.60;;;;;;7355820;19;20014;-68
2022/10/26 05:21:25;;;;;;;11.57;5.05;;;12.90;39.40;;;;;;7355980;19;20494;-67
2022/10/26 05:23:55;;;;;;;9.73;4.80;;;12.90;39.60;;;;;;7357423;19;20046;-67
2022/10/26 05:26:26;;;;;;;7.00;4.93;;;12.90;39.40;;;;;;7377134;19;20018;-67
2022/10/26 05:28:56;;;;;;;8.10;4.93;;;13.00;38.40;;;;;;7355929;19;20800;-69
2022/10/26 05:31:26;;;;;;;8.88;4.90;;;13.00;37.90;;;;;;7353659;19;20022;-67
2022/10/26 05:33:55;;;;;;;10.63;6.88;;;13.00;38.20;;;;;;7356779;19;20007;-67
2022/10/26 05:36:28;;;;;;;8.48;4.90;;;13.10;38.90;;;;;;7355789;19;20380;-67
2022/10/26 05:38:59;;;;;;;8.05;5.13;;;13.10;39.00;;;;;;7353558;19;20635;-67
2022/10/26 05:41:29;;;;;;;13.25;5.45;;;13.20;39.20;;;;;;7375102;19;20018;-68
2022/10/26 05:43:59;;;;;;;9.35;5.63;;;13.10;39.40;;;;;;7356066;19;20014;-67
2022/10/26 05:46:29;;;;;;;7.68;4.72;;;13.20;39.40;;;;;;7353808;19;20010;-67
2022/10/26 05:48:59;;;;;;;11.93;4.85;;;13.20;38.60;;;;;;7359009;19;20010;-67
2022/10/26 05:51:31;;;;;;;11.13;4.60;;;13.20;38.90;;;;;;7360510;19;20014;-68
2022/10/26 05:54:01;;;;;;;9.77;5.15;;;13.20;39.90;;;;;;7363654;19;20034;-67
2022/10/26 05:56:37;;;;;;;10.00;5.20;;;13.20;40.30;;;;;;7382364;19;20091;-67
2022/10/26 05:59:12;;;;;;;7.80;4.38;;;13.20;41.00;;;;;;7361543;19;20111;-67
2022/10/26 06:01:54;;;;;;;13.98;4.55;;;13.20;41.50;;;;;;7362025;19;20419;-68
2022/10/26 06:04:37;;;;;;;8.57;4.35;;;13.20;41.90;;;;;;7361427;19;20006;-68
2022/10/26 06:07:16;;;;;;;10.75;5.05;;;13.10;42.60;;;;;;7361080;19;20006;-67
2022/10/26 06:09:47;;;;;;;8.05;5.32;;;13.20;43.40;;;;;;7361288;19;20110;-67
2022/10/26 06:12:18;;;;;;;9.15;4.45;;;13.20;44.10;;;;;;7361895;19;20010;-67
2022/10/26 06:14:49;;;;;;;7.65;4.38;;;13.30;44.20;;;;;;7362274;19;20010;-67
2022/10/26 06:17:33;;;;;;;8.20;3.97;;;13.30;43.30;;;;;;7381834;19;20007;-68
2022/10/26 06:20:15;;;;;;;9.50;4.55;;;13.30;42.40;;;;;;7361706;19;20011;-67
2022/10/26 06:23:01;;;;;;;8.98;4.45;;;13.30;42.50;;;;;;7362701;19;20018;-67
2022/10/26 06:25:39;;;;;;;8.60;4.03;;;13.40;42.90;;;;;;7360269;19;20022;-68
2022/10/26 06:28:21;;;;;;;7.85;4.10;;;13.40;42.30;;;;;;7361239;19;20011;-69
2022/10/26 06:30:51;;;;;;;13.90;3.90;;;13.40;41.80;;;;;;7360387;19;20027;-66
2022/10/26 06:33:21;;;;;;;10.88;4.32;;;13.50;41.80;;;;;;7362910;19;20010;-67
2022/10/26 06:36:12;;;;;;;11.55;4.40;;;13.50;41.90;;;;;;7361291;19;20038;-67
2022/10/26 06:38:47;;;;;;;7.97;3.53;;;13.50;42.00;;;;;;7382628;19;20111;-68
2022/10/26 06:41:18;;;;;;;8.98;3.95;;;13.50;42.40;;;;;;7360191;19;20021;-67
2022/10/26 06:43:48;;;;;;;9.68;4.00;;;13.50;42.10;;;;;;7362675;19;20290;-69
2022/10/26 06:46:31;;;;;;;8.35;3.80;;;13.50;41.50;;;;;;7360569;19;20014;-68
2022/10/26 06:49:08;;;;;;;10.77;4.10;;;13.60;41.40;;;;;;7362406;19;20013;-68
2022/10/26 06:51:45;;;;;;;11.57;4.43;;;13.60;40.80;;;;;;7359899;19;20288;-68
2022/10/26 06:54:23;;;;;;;6.50;4.38;;;13.60;41.10;;;;;;7362548;19;20014;-68
2022/10/26 06:56:54;;;;;;;10.27;4.13;;;13.60;40.90;;;;;;7358199;19;20018;-68
2022/10/26 06:59:34;;;;;;;9.68;4.57;;;13.60;41.60;;;;;;7379169;19;20015;-69
2022/10/26 07:02:03;;;;;;;5.75;4.10;;;13.60;42.30;;;;;;7358744;19;20017;-67
2022/10/26 07:04:35;;;;;;;8.43;4.15;;;13.60;42.90;;;;;;7360468;19;20021;-68
2022/10/26 07:07:05;;;;;;;6.07;4.22;;;13.60;44.20;;;;;;7358472;19;20478;-67
2022/10/26 07:09:38;;;;;;;8.13;4.30;;;13.60;44.50;;;;;;7360170;19;20018;-68
2022/10/26 07:12:08;;;;;;;9.77;5.38;;;13.60;44.40;;;;;;7358643;19;20368;-67
2022/10/26 07:14:37;;;;;;;17.02;5.22;;;13.60;44.30;;;;;;7382802;19;20019;-68
2022/10/26 07:17:07;;;;;;;13.35;4.97;;;13.70;43.70;;;;;;7354834;19;20011;-68
2022/10/26 07:19:39;;;;;;;14.32;4.50;;;13.70;43.20;;;;;;7356527;19;20015;-67
2022/10/26 07:22:09;;;;;;;7.43;4.53;;;13.70;42.80;;;;;;7356753;19;20599;-68
2022/10/26 07:24:41;;;;;;;11.02;5.00;;;13.80;42.10;;;;;;7359421;19;20048;-69
2022/10/26 07:27:11;;;;;;;11.50;4.68;;;13.80;41.30;;;;;;7356217;19;20015;-67
2022/10/26 07:29:41;;;;;;;7.45;4.72;;;13.90;40.70;;;;;;7379352;19;20371;-68
2022/10/26 07:32:11;;;;;;;10.60;4.63;;;13.90;40.50;;;;;;7354983;19;20015;-68
2022/10/26 07:34:40;;;;;;;12.98;4.72;;;13.90;40.50;;;;;;7358204;19;20014;-68
2022/10/26 07:37:10;;;;;;;6.85;4.90;;;14.00;41.20;;;;;;7356105;19;20074;-68
2022/10/26 07:39:43;;;;;;;11.13;5.85;;;14.00;41.50;;;;;;7358588;19;20102;-68
2022/10/26 07:42:13;;;;;;;9.00;5.50;;;14.00;42.90;;;;;;7356075;19;20062;-66
2022/10/26 07:44:42;;;;;;;9.18;4.95;;;14.00;43.70;;;;;;7380265;19;20014;-67
2022/10/26 07:47:12;;;;;;;10.82;4.90;;;14.00;42.20;;;;;;7358081;19;20379;-67
2022/10/26 07:49:42;;;;;;;8.48;4.15;;;14.10;40.80;;;;;;7358683;19;20018;-68
2022/10/26 07:52:12;;;;;;;10.02;4.57;;;14.20;38.20;;;;;;7359698;19;20007;-67
2022/10/26 07:54:44;;;;;;;11.02;4.38;;;14.30;36.60;;;;;;7359428;19;20038;-68
2022/10/26 07:57:14;;;;;;;10.85;4.57;;;14.30;36.60;;;;;;7356209;19;20658;-67
2022/10/26 07:59:44;;;;;;;9.30;4.22;;;14.30;36.60;;;;;;7375274;19;20094;-68
2022/10/26 08:02:14;;;;;;;8.35;4.20;;;14.30;36.50;;;;;;7354940;19;20489;-67
2022/10/26 08:04:43;;;;;;;10.07;3.97;;;14.40;35.80;;;;;;7356608;19;20022;-68
2022/10/26 08:07:13;;;;;;;12.40;3.95;;;14.40;35.10;;;;;;7354944;19;20482;-67
2022/10/26 08:09:45;;;;;;;13.05;3.80;;;14.40;35.90;;;;;;7357006;19;20018;-68
2022/10/26 08:12:15;;;;;;;9.00;3.35;;;14.50;36.30;;;;;;7354865;19;20459;-67
2022/10/26 08:14:45;;;;;;;8.38;4.28;;;14.60;35.80;;;;;;7379075;19;20074;-68
2022/10/26 08:17:15;;;;;;;14.10;4.43;;;14.60;36.10;;;;;;7354396;19;20026;-67
2022/10/26 08:19:45;;;;;;;11.05;5.18;;;14.70;33.70;;;;;;7355577;19;20065;-69
2022/10/26 08:22:15;;;;;;;8.90;4.00;;;14.80;33.70;;;;;;7355650;19;20085;-67
2022/10/26 08:24:47;;;;;;;9.48;3.90;;;14.90;33.70;;;;;;7357851;19;20091;-67
2022/10/26 08:27:17;;;;;;;8.90;4.20;;;15.10;30.40;;;;;;7353258;19;20409;-67
2022/10/26 08:29:47;;;;;;;14.98;4.38;;;15.20;29.60;;;;;;7366468;19;20022;-68
2022/10/26 08:32:17;;;;;;;9.40;3.75;;;15.20;29.10;;;;;;7377534;19;20019;-67
2022/10/26 08:34:47;;;;;;;7.43;3.80;;;15.20;28.80;;;;;;7355337;19;20224;-68
2022/10/26 08:37:16;;;;;;;8.68;3.60;;;15.20;28.90;;;;;;7353263;19;20552;-68
2022/10/26 08:39:49;;;;;;;10.07;3.90;;;15.30;28.90;;;;;;7354392;19;20372;-68
2022/10/26 08:42:29;;;;;;;5.47;3.63;;;15.30;28.70;;;;;;7357664;19;20010;-67
2022/10/26 08:45:02;;;;;;;8.07;3.28;;;15.30;28.70;;;;;;7356843;19;20010;-68
2022/10/26 08:47:38;;;;;;;8.43;3.20;;;15.40;28.90;;;;;;7375722;19;20469;-68
2022/10/26 08:50:13;;;;;;;8.07;3.63;;;15.40;29.00;;;;;;7355573;19;20052;-67
2022/10/26 08:52:48;;;;;;;12.18;3.70;;;15.50;29.30;;;;;;7356250;19;20362;-68
2022/10/26 08:55:27;;;;;;;9.48;4.47;;;15.60;28.60;;;;;;7357780;19;20099;-67
2022/10/26 08:57:57;;;;;;;10.52;4.32;;;15.60;28.60;;;;;;7355971;19;20407;-68
2022/10/26 09:00:28;;;;;;;8.57;4.07;;;15.70;27.90;;;;;;7353547;19;20390;-68
2022/10/26 09:02:58;;;;;;;12.57;3.80;;;15.80;26.70;;;;;;7357171;19;20034;-68
2022/10/26 09:05:36;;;;;;;16.08;4.35;;;15.90;27.50;;;;;;7374174;19;20027;-67
2022/10/26 09:08:14;;;;;;;5.57;3.08;;;16.00;26.00;;;;;;7351157;19;20042;-67
2022/10/26 09:10:58;;;;;;;9.88;3.13;;;16.10;24.20;;;;;;7352286;19;20021;-68
2022/10/26 09:13:37;;;;;;;9.00;6.30;;;16.30;23.00;;;;;;7354279;19;20046;-69
2022/10/26 09:16:13;;;;;;;7.93;3.03;;;16.50;21.10;;;;;;7352690;19;20021;-68
2022/10/26 09:18:53;;;;;;;5.63;3.08;;;16.80;19.70;;;;;;7355901;19;20026;-68
2022/10/26 09:21:39;;;;;;;9.10;2.97;;;16.90;18.60;;;;;;7353849;19;20017;-68
2022/10/26 09:24:15;;;;;;;4.88;2.55;;;17.00;17.70;;;;;;7346159;19;20019;-68
2022/10/26 09:26:55;;;;;;;5.03;2.95;;;17.20;16.40;;;;;;7375714;19;20095;-68
2022/10/26 09:29:29;;;;;;;3.95;2.67;;;17.30;14.60;;;;;;7359254;19;20018;-69
2022/10/26 09:32:02;;;;;;;6.60;2.85;;;17.40;13.40;;;;;;7358907;19;20021;-68
2022/10/26 09:34:40;;;;;;;6.73;3.03;;;17.50;12.70;;;;;;7355584;19;20090;-68
2022/10/26 09:37:17;;;;;;;7.38;2.88;;;17.50;12.90;;;;;;7357336;19;20011;-68
2022/10/26 09:39:57;;;;;;;10.35;5.45;;;17.70;11.80;;;;;;7357235;19;20007;-69
2022/10/26 09:42:37;;;;;;;4.50;2.13;;;17.80;9.40;;;;;;7356883;19;20011;-69
2022/10/26 09:45:14;;;;;;;7.80;2.75;;;17.80;8.90;;;;;;7353894;19;20863;-68
2022/10/26 09:47:51;;;;;;;8.02;2.92;;;17.70;8.70;;;;;;7376178;19;20769;-69
2022/10/26 09:50:25;;;;;;;7.82;2.65;;;17.90;8.10;;;;;;7357458;19;20010;-68
2022/10/26 09:52:55;;;;;;;6.00;2.92;;;18.00;7.20;;;;;;7357451;19;20010;-69
2022/10/26 09:55:26;;;;;;;8.38;3.28;;;18.20;5.90;;;;;;7351239;19;20031;-68
2022/10/26 09:58:03;;;;;;;5.50;2.25;;;18.30;4.80;;;;;;7355626;19;20028;-69
2022/10/26 10:00:35;;;;;;;6.28;2.13;;;18.40;2.50;;;;;;7355766;19;20347;-68
2022/10/26 10:03:28;;;;;;;4.57;2.58;;;18.20;1.00;;;;;;7358518;19;20023;-68
2022/10/26 10:06:17;;;;;;;8.38;2.80;;;18.10;2.30;;;;;;7351626;19;20418;-68
2022/10/26 10:09:09;;;;;;;8.60;2.72;;;18.00;3.70;;;;;;7372961;19;20781;-69
2022/10/26 10:11:41;;;;;;;11.50;3.00;;;18.10;3.90;;;;;;7381630;19;20474;-68
2022/10/26 10:14:17;;;;;;;4.93;2.38;;;18.10;2.70;;;;;;7358877;19;20010;-68
2022/10/26 10:16:56;;;;;;;5.50;2.63;;;18.20;2.50;;;;;;7350718;19;20017;-68
2022/10/26 10:19:28;;;;;;;4.78;2.17;;;18.20;2.90;;;;;;7355499;19;20025;-69
2022/10/26 10:22:00;;;;;;;8.55;2.70;;;18.30;2.20;;;;;;7357046;19;20268;-69
2022/10/26 10:24:32;;;;;;;12.90;6.85;;;18.40;2.50;;;;;;7353805;19;20015;-69
2022/10/26 10:27:03;;;;;;;8.80;2.90;;;18.40;1.70;;;;;;7356195;19;20041;-68
2022/10/26 10:29:42;;;;;;;7.53;2.60;;;18.60;1.00;;;;;;7378185;19;20022;-68
2022/10/26 10:32:19;;;;;;;10.23;2.70;;;18.70;1.20;;;;;;7358023;19;20006;-69
2022/10/26 10:34:49;;;;;;;10.07;2.58;;;18.70;1.00;;;;;;7348996;19;20456;-68
2022/10/26 10:37:28;;;;;;;11.43;2.72;;;18.60;1.00;;;;;;7348883;19;20010;-68
2022/10/26 10:39:59;;;;;;;6.97;2.20;;;18.50;1.00;;;;;;7351563;19;20018;-69
2022/10/26 10:42:33;;;;;;;10.25;2.67;;;18.60;1.00;;;;;;7352472;19;20084;-69
2022/10/26 10:45:07;;;;;;;9.10;2.40;;;18.60;1.00;;;;;;7346431;19;20486;-67
2022/10/26 10:47:38;;;;;;;6.70;2.10;;;18.60;1.00;;;;;;7371633;19;20303;-68
2022/10/26 10:50:17;;;;;;;6.32;2.75;;;18.70;1.00;;;;;;7353294;19;20661;-69
2022/10/26 10:52:47;;;;;;;5.18;2.20;;;18.80;1.00;;;;;;7353637;19;20010;-68
2022/10/26 10:55:22;;;;;;;6.15;2.58;;;19.00;1.00;;;;;;7348786;19;20050;-68
2022/10/26 10:58:07;;;;;;;7.57;2.20;;;19.10;1.00;;;;;;7351260;19;20045;-68
2022/10/26 11:00:41;;;;;;;5.45;2.15;;;19.00;1.00;;;;;;7352258;19;20002;-69
2022/10/26 11:03:42;;;;;;;6.72;2.55;;;18.90;1.00;;;;;;7353953;19;20006;-69
2022/10/26 11:06:18;;;;;;;4.22;2.13;;;18.80;1.00;;;;;;7346434;19;20904;-69
2022/10/26 11:08:52;;;;;;;8.52;2.58;;;18.90;1.00;;;;;;7355229;19;20458;-69
2022/10/26 11:11:26;;;;;;;11.03;2.97;;;19.00;1.00;;;;;;7375399;19;20037;-69
2022/10/26 11:14:01;;;;;;;6.25;2.55;;;19.00;1.90;;;;;;7353112;19;20266;-69
2022/10/26 11:16:39;;;;;;;9.70;2.83;;;19.40;1.00;;;;;;7344552;19;20014;-67
2022/10/26 11:19:19;;;;;;;10.27;3.40;;;19.50;1.00;;;;;;7352273;19;20014;-66
2022/10/26 11:21:53;;;;;;;10.80;2.53;;;19.70;1.00;;;;;;7354341;19;20046;-68
2022/10/26 11:24:27;;;;;;;8.13;2.53;;;19.80;1.00;;;;;;7352674;19;20490;-66
2022/10/26 11:26:59;;;;;;;;;;;19.90;1.00;;;;;;7350398;19;20501;-67
2022/10/26 11:29:38;;;;;;;6.32;2.33;;;20.00;1.00;;;;;;7372408;19;19933;-67
2022/10/26 11:32:18;;;;;;;7.55;2.40;;;20.10;1.00;;;;;;7353051;19;20643;-66
2022/10/26 11:34:55;;;;;;;7.40;2.28;;;20.00;1.00;;;;;;7347716;19;20123;-67
2022/10/26 11:37:31;;;;;;;7.25;2.40;;;20.00;1.00;;;;;;7351003;19;20038;-67
2022/10/26 11:40:06;;;;;;;6.50;2.22;;;20.00;1.00;;;;;;7350915;19;20049;-66
2022/10/26 11:42:42;;;;;;;4.95;1.92;;;20.00;1.00;;;;;;7351946;19;20082;-66
2022/10/26 11:45:21;;;;;;;8.63;2.13;;;20.20;1.00;;;;;;7346980;19;20014;-66
2022/10/26 11:47:56;;;;;;;4.75;2.00;;;20.20;1.00;;;;;;7348199;19;20976;-67
2022/10/26 11:50:31;;;;;;;4.18;2.00;;;20.40;1.00;;;;;;7372999;19;20014;-67
2022/10/26 11:53:02;;;;;;;;;;;20.50;1.00;;;;;;7352031;19;20014;-68
2022/10/26 11:55:33;;;;;;;4.68;1.40;;;20.30;1.00;;;;;;7346079;19;19922;-66
2022/10/26 11:58:04;;;;;;;7.30;2.00;;;20.30;1.00;;;;;;7349895;19;20020;-67
2022/10/26 12:00:43;;;;;;;7.30;1.60;;;20.30;1.00;;;;;;7349163;19;20031;-67
2022/10/26 12:03:21;;;;;;;5.75;1.33;;;20.40;1.00;;;;;;7350730;19;20081;-67
2022/10/26 12:05:53;;;;;;;4.88;1.90;;;20.20;1.00;;;;;;7342711;19;20074;-66
2022/10/26 12:08:26;;;;;;;4.10;1.65;;;20.40;1.00;;;;;;7370432;19;20048;-67
2022/10/26 12:11:04;;;;;;;5.50;1.75;;;20.50;1.00;;;;;;7347652;19;20660;-66
2022/10/26 12:13:58;;;;;;;4.38;1.92;;;20.40;1.00;;;;;;7348573;19;20014;-67
2022/10/26 12:16:49;;;;;;;3.90;1.50;;;20.50;1.00;;;;;;7341581;19;20020;-67
2022/10/26 12:19:27;;;;;;;5.32;1.40;;;20.40;1.00;;;;;;7348623;19;20420;-66
2022/10/26 12:22:00;;;;;;;7.10;1.83;;;20.30;1.00;;;;;;7348625;19;20494;-67
2022/10/26 12:24:34;;;;;;;6.30;1.92;;;20.30;1.00;;;;;;7346839;19;20003;-67
2022/10/26 12:27:06;;;;;;;3.53;1.30;;;20.30;1.00;;;;;;7345551;19;20010;-67
2022/10/26 12:29:48;;;;;;;8.98;1.90;;;20.10;1.00;;;;;;7370247;19;20022;-66
2022/10/26 12:32:51;;;;;;;5.57;1.63;;;20.20;1.00;;;;;;7349251;19;20090;-68
2022/10/26 12:35:42;;;;;;;6.03;1.65;;;20.30;1.00;;;;;;7342537;19;20011;-67
2022/10/26 12:38:49;;;;;;;3.20;1.35;;;20.30;1.00;;;;;;7345492;19;20589;-67
2022/10/26 12:41:27;;;;;;;5.82;1.70;;;20.10;1.00;;;;;;7348009;19;20122;-68
2022/10/26 12:43:59;;;;;;;6.70;1.77;;;20.10;1.00;;;;;;7348462;19;20495;-67
2022/10/26 12:46:43;;;;;;;6.60;1.90;;;20.20;1.00;;;;;;7339810;19;20462;-66
2022/10/26 12:49:56;;;;;;;9.52;1.92;;;20.20;1.00;;;;;;7348169;19;20014;-66
2022/10/26 12:52:50;;;;;;;6.90;1.73;;;20.20;1.00;;;;;;7347896;19;20041;-67
2022/10/26 12:56:05;;;;;;;8.75;2.13;;;20.30;1.00;;;;;;7342525;19;20086;-68
2022/10/26 12:58:57;;;;;;;7.63;1.63;;;20.50;1.00;;;;;;7351910;19;20021;-67
2022/10/26 13:01:47;;;;;;;4.75;1.40;;;20.60;1.00;;;;;;7354111;19;20789;-67
2022/10/26 13:05:19;;;;;;;4.68;2.30;;;20.80;1.00;;;;;;7352649;19;20021;-67
2022/10/26 13:07:52;;;;;;;6.93;2.33;;;20.80;1.00;;;;;;7349049;19;20047;-67
2022/10/26 13:10:24;;;;;;;7.05;2.25;;;20.60;1.00;;;;;;7357614;19;20022;-67
2022/10/26 13:12:58;;;;;;;4.90;1.75;;;20.70;1.00;;;;;;7355514;19;20471;-67
2022/10/26 13:15:31;;;;;;;2.67;1.25;;;20.70;1.00;;;;;;7349971;19;20019;-67
2022/10/26 13:18:04;;;;;;;4.97;1.80;;;20.60;1.00;;;;;;7354209;19;20018;-67
2022/10/26 13:20:35;;;;;;;5.95;1.80;;;20.60;1.00;;;;;;7378532;19;20466;-66
2022/10/26 13:23:21;;;;;;;5.78;1.70;;;20.50;1.00;;;;;;7353328;19;20474;-66
2022/10/26 13:26:05;;;;;;;5.85;1.60;;;20.50;1.00;;;;;;7349230;19;20015;-67